PGT19D EDDM-EDDN
Flight info
| Callsign | PGT19D |
|---|---|
| Flight time | 0h 18m |
| Altitude | 14000 |
| Route | INPUD3Q INPUD Y102 UPALA UPALA1V |
| Aircraft | A320/M-SDE3FGHIRWY/LB1 |
Departure
| Time | 2026-05-04 17:23 |
|---|---|
| Airport | Munich Airport (EDDM) |
Arrival
| Time | 2026-05-04 17:41 |
|---|---|
| Airport | Nuremberg Airport (EDDN) |
| Time | Latitude | Longitude | Altitude | Speed | Heading |
|---|---|---|---|---|---|
| 2026-05-04 16:58 | 48.35278 | 11.78316 | 1486 ft | 0 kts | 83° |
| 2026-05-04 17:12 | 48.35275 | 11.78281 | 1482 ft | 4 kts | 83° |
| 2026-05-04 17:13 | 48.35235 | 11.78217 | 1473 ft | 3 kts | 353° |
| 2026-05-04 17:14 | 48.35221 | 11.78220 | 1485 ft | 0 kts | 353° |
| 2026-05-04 17:16 | 48.35291 | 11.78207 | 1483 ft | 11 kts | 353° |
| 2026-05-04 17:17 | 48.35347 | 11.78144 | 1485 ft | 11 kts | 287° |
| 2026-05-04 17:17 | 48.35336 | 11.77864 | 1485 ft | 8 kts | 264° |
| 2026-05-04 17:18 | 48.35379 | 11.77780 | 1481 ft | 14 kts | 340° |
| 2026-05-04 17:18 | 48.35589 | 11.77741 | 1485 ft | 17 kts | 354° |
| 2026-05-04 17:19 | 48.35812 | 11.77702 | 1480 ft | 11 kts | 354° |
| 2026-05-04 17:19 | 48.35866 | 11.77693 | 1486 ft | 0 kts | 353° |
| 2026-05-04 17:20 | 48.35905 | 11.77686 | 1480 ft | 11 kts | 353° |
| 2026-05-04 17:20 | 48.36163 | 11.77737 | 1481 ft | 24 kts | 54° |
| 2026-05-04 17:20 | 48.36250 | 11.77914 | 1471 ft | 15 kts | 54° |
| 2026-05-04 17:21 | 48.36267 | 11.77947 | 1478 ft | 0 kts | 53° |
| 2026-05-04 17:21 | 48.36308 | 11.78028 | 1481 ft | 12 kts | 52° |
| 2026-05-04 17:22 | 48.36371 | 11.78122 | 1478 ft | 14 kts | 56° |
| 2026-05-04 17:22 | 48.36403 | 11.78390 | 1485 ft | 58 kts | 83° |
| 2026-05-04 17:23 | 48.36750 | 11.82964 | 2900 ft | 178 kts | 83° |
| 2026-05-04 17:23 | 48.36898 | 11.84874 | 3395 ft | 194 kts | 81° |
| 2026-05-04 17:23 | 48.38918 | 11.87697 | 4108 ft | 239 kts | 5° |
| 2026-05-04 17:24 | 48.40658 | 11.87568 | 4591 ft | 262 kts | 346° |
| 2026-05-04 17:24 | 48.44570 | 11.81569 | 7195 ft | 280 kts | 308° |
| 2026-05-04 17:25 | 48.45946 | 11.79457 | 8079 ft | 287 kts | 323° |
| 2026-05-04 17:25 | 48.49547 | 11.76601 | 9881 ft | 298 kts | 331° |
| 2026-05-04 17:26 | 48.53507 | 11.73651 | 10706 ft | 341 kts | 331° |
| 2026-05-04 17:26 | 48.60238 | 11.68631 | 12597 ft | 369 kts | 331° |
| 2026-05-04 17:27 | 48.64867 | 11.65174 | 13785 ft | 377 kts | 330° |
| 2026-05-04 17:27 | 48.69669 | 11.61561 | 13928 ft | 402 kts | 330° |
| 2026-05-04 17:28 | 48.74726 | 11.57740 | 13923 ft | 408 kts | 331° |
| 2026-05-04 17:29 | 48.82304 | 11.52035 | 13841 ft | 391 kts | 331° |
| 2026-05-04 17:29 | 48.89421 | 11.46645 | 12443 ft | 375 kts | 330° |
| 2026-05-04 17:30 | 48.96324 | 11.41392 | 11019 ft | 361 kts | 330° |
| 2026-05-04 17:31 | 49.00620 | 11.38128 | 10941 ft | 328 kts | 330° |
| 2026-05-04 17:31 | 49.06445 | 11.33699 | 10949 ft | 307 kts | 332° |
| 2026-05-04 17:32 | 49.10628 | 11.33214 | 10862 ft | 312 kts | 17° |
| 2026-05-04 17:33 | 49.16050 | 11.38511 | 9848 ft | 307 kts | 21° |
| 2026-05-04 17:33 | 49.18110 | 11.39208 | 9507 ft | 302 kts | 3° |
| 2026-05-04 17:34 | 49.24335 | 11.39981 | 8433 ft | 296 kts | 3° |
| 2026-05-04 17:34 | 49.26380 | 11.40228 | 8087 ft | 293 kts | 3° |
| 2026-05-04 17:35 | 49.32415 | 11.40965 | 7017 ft | 286 kts | 4° |
| 2026-05-04 17:35 | 49.36356 | 11.41449 | 6284 ft | 282 kts | 4° |
| 2026-05-04 17:35 | 49.38312 | 11.41690 | 5889 ft | 281 kts | 4° |
| 2026-05-04 17:36 | 49.40250 | 11.41931 | 5528 ft | 279 kts | 4° |
| 2026-05-04 17:36 | 49.41526 | 11.42089 | 5294 ft | 277 kts | 4° |
| 2026-05-04 17:36 | 49.43437 | 11.42327 | 4930 ft | 274 kts | 4° |
| 2026-05-04 17:36 | 49.45310 | 11.42076 | 4564 ft | 270 kts | 337° |
| 2026-05-04 17:37 | 49.46725 | 11.40338 | 4332 ft | 258 kts | 301° |
| 2026-05-04 17:37 | 49.47165 | 11.37784 | 4209 ft | 245 kts | 268° |
| 2026-05-04 17:37 | 49.47124 | 11.35232 | 4092 ft | 234 kts | 275° |
| 2026-05-04 17:37 | 49.47348 | 11.32812 | 3960 ft | 226 kts | 279° |
| 2026-05-04 17:38 | 49.47606 | 11.30438 | 3702 ft | 225 kts | 279° |
| 2026-05-04 17:38 | 49.47852 | 11.28051 | 3411 ft | 227 kts | 279° |
| 2026-05-04 17:38 | 49.48094 | 11.25649 | 3115 ft | 228 kts | 279° |
| 2026-05-04 17:38 | 49.48330 | 11.23282 | 2820 ft | 219 kts | 280° |
| 2026-05-04 17:39 | 49.48772 | 11.18863 | 2271 ft | 199 kts | 280° |
| 2026-05-04 17:39 | 49.48973 | 11.16838 | 2033 ft | 182 kts | 280° |
| 2026-05-04 17:39 | 49.49152 | 11.15037 | 1799 ft | 160 kts | 280° |
| 2026-05-04 17:40 | 49.49313 | 11.13421 | 1577 ft | 146 kts | 279° |
| 2026-05-04 17:40 | 49.49466 | 11.11890 | 1377 ft | 143 kts | 280° |
| 2026-05-04 17:40 | 49.49617 | 11.10379 | 1174 ft | 142 kts | 280° |
| 2026-05-04 17:40 | 49.49758 | 11.08911 | 1048 ft | 131 kts | 280° |
| 2026-05-04 17:41 | 49.49877 | 11.07776 | 1025 ft | 75 kts | 278° |
| 2026-05-04 17:41 | 49.49941 | 11.07104 | 1024 ft | 43 kts | 274° |
| 2026-05-04 17:41 | 49.49974 | 11.06719 | 1024 ft | 36 kts | 279° |
| 2026-05-04 17:41 | 49.49979 | 11.06501 | 1023 ft | 14 kts | 228° |
| 2026-05-04 17:42 | 49.49890 | 11.06494 | 1022 ft | 13 kts | 162° |
| 2026-05-04 17:42 | 49.49816 | 11.06538 | 1020 ft | 11 kts | 144° |
| 2026-05-04 17:42 | 49.49791 | 11.06642 | 1020 ft | 10 kts | 97° |
| 2026-05-04 17:42 | 49.49782 | 11.06742 | 1020 ft | 9 kts | 99° |
| 2026-05-04 17:43 | 49.49773 | 11.06831 | 1020 ft | 8 kts | 99° |
| 2026-05-04 17:43 | 49.49766 | 11.06907 | 1020 ft | 8 kts | 98° |
| 2026-05-04 17:43 | 49.49750 | 11.07065 | 1021 ft | 22 kts | 98° |
| 2026-05-04 17:43 | 49.49724 | 11.07334 | 1023 ft | 27 kts | 98° |
| 2026-05-04 17:44 | 49.49696 | 11.07610 | 1025 ft | 25 kts | 100° |
| 2026-05-04 17:44 | 49.49680 | 11.07749 | 1027 ft | 6 kts | 120° |
| 2026-05-04 17:44 | 49.49679 | 11.07751 | 1027 ft | 0 kts | 128° |
| 2026-05-04 17:46 | 49.49678 | 11.07753 | 1027 ft | 2 kts | 128° |
| 2026-05-04 17:47 | 49.49620 | 11.07767 | 1025 ft | 13 kts | 198° |
| 2026-05-04 17:47 | 49.49538 | 11.07728 | 1026 ft | 7 kts | 188° |
| 2026-05-04 17:47 | 49.49523 | 11.07724 | 1024 ft | 0 kts | 188° |